Time;durP1;ratioP1;P1;durP2;ratioP2;P2;SDS_P1;SDS_P2;PMS_P1;PMS_P2;Temp;Humidity;BMP_temperature;BMP_pressure;BME280_temperature;BME280_humidity;BME280_pressure;Samples;Min_cycle;Max_cycle;Signal;HPM_P1;HPM_P2
2021/10/31 00:00:10;;;;;;;12.00;10.18;;;10.80;86.30;;;;;;4995090;28;20030;-65
2021/10/31 00:02:35;;;;;;;14.23;9.75;;;10.80;86.20;;;;;;4994225;28;20056;-65
2021/10/31 00:05:01;;;;;;;11.73;9.65;;;10.80;86.20;;;;;;4996361;28;20046;-62
2021/10/31 00:07:26;;;;;;;10.95;9.55;;;10.80;86.20;;;;;;5027629;28;20050;-65
2021/10/31 00:09:52;;;;;;;11.00;8.88;;;10.90;86.20;;;;;;4996555;28;20038;-65
2021/10/31 00:12:18;;;;;;;10.60;9.38;;;10.90;86.20;;;;;;4992504;28;20045;-65
2021/10/31 00:14:43;;;;;;;10.23;8.85;;;10.90;86.20;;;;;;4996121;28;20440;-65
2021/10/31 00:17:09;;;;;;;10.10;9.05;;;10.90;86.20;;;;;;4995521;28;20038;-65
2021/10/31 00:19:35;;;;;;;11.98;9.43;;;10.90;86.10;;;;;;4998073;28;20510;-65
2021/10/31 00:22:00;;;;;;;11.45;9.70;;;10.90;86.10;;;;;;4996019;28;20042;-65
2021/10/31 00:24:26;;;;;;;11.68;9.98;;;11.00;86.20;;;;;;4997029;28;20473;-63
2021/10/31 00:26:52;;;;;;;10.65;9.18;;;10.90;86.20;;;;;;4996237;28;20036;-65
2021/10/31 00:29:18;;;;;;;12.25;9.35;;;10.90;86.30;;;;;;4989671;28;20035;-65
2021/10/31 00:31:44;;;;;;;9.95;8.95;;;11.00;86.40;;;;;;4996589;28;20042;-65
2021/10/31 00:34:10;;;;;;;10.55;9.30;;;11.00;86.40;;;;;;5009725;28;20026;-65
2021/10/31 00:36:37;;;;;;;11.63;9.38;;;11.00;86.40;;;;;;4994740;28;20061;-67
2021/10/31 00:39:06;;;;;;;11.68;10.07;;;11.00;86.40;;;;;;4995069;28;20509;-67
2021/10/31 00:41:33;;;;;;;12.05;10.18;;;11.00;86.40;;;;;;4996698;28;20042;-66
2021/10/31 00:43:58;;;;;;;13.73;9.75;;;11.00;86.40;;;;;;4996813;28;20042;-67
2021/10/31 00:46:24;;;;;;;14.13;9.88;;;11.10;86.30;;;;;;4991124;28;20030;-64
2021/10/31 00:48:50;;;;;;;11.40;9.02;;;11.10;86.30;;;;;;4995386;28;20030;-65
2021/10/31 00:51:16;;;;;;;12.50;9.57;;;11.10;86.30;;;;;;4993799;28;20035;-65
2021/10/31 00:53:43;;;;;;;12.32;9.80;;;11.10;86.20;;;;;;4992564;28;20039;-65
2021/10/31 00:56:09;;;;;;;11.68;9.63;;;11.10;86.10;;;;;;4996010;28;20030;-65
2021/10/31 00:58:36;;;;;;;15.85;10.25;;;11.10;86.00;;;;;;4995252;28;20033;-65
2021/10/31 01:01:01;;;;;;;12.27;9.35;;;11.10;86.00;;;;;;4994483;28;20109;-65
2021/10/31 01:03:27;;;;;;;10.85;9.13;;;11.10;86.00;;;;;;4992120;28;20517;-63
2021/10/31 01:06:01;;;;;;;10.60;8.88;;;11.10;86.00;;;;;;4994299;28;20565;-65
2021/10/31 01:08:49;;;;;;;10.15;8.80;;;11.10;86.00;;;;;;4994490;28;20046;-64
2021/10/31 01:11:39;;;;;;;9.50;8.27;;;11.10;86.10;;;;;;4988074;28;20535;-65
2021/10/31 01:14:30;;;;;;;10.15;8.77;;;11.10;86.00;;;;;;4995236;28;20038;-65
2021/10/31 01:17:10;;;;;;;11.43;8.88;;;11.10;86.20;;;;;;4999330;28;20037;-65
2021/10/31 01:19:48;;;;;;;10.27;8.70;;;11.20;86.10;;;;;;5005495;28;20121;-67
2021/10/31 01:22:26;;;;;;;11.65;9.75;;;11.20;85.90;;;;;;4989258;28;20121;-67
2021/10/31 01:25:19;;;;;;;10.70;8.80;;;11.10;85.70;;;;;;4988808;28;20118;-66
2021/10/31 01:27:58;;;;;;;12.15;9.40;;;11.10;85.90;;;;;;4994973;28;20033;-66
2021/10/31 01:30:47;;;;;;;11.02;9.18;;;11.10;86.00;;;;;;4996200;28;20035;-66
2021/10/31 01:33:25;;;;;;;12.20;9.70;;;11.00;86.00;;;;;;4995207;28;20490;-66
2021/10/31 01:36:22;;;;;;;12.93;9.27;;;11.00;86.00;;;;;;4995270;28;20041;-67
2021/10/31 01:39:11;;;;;;;10.77;9.25;;;11.00;86.30;;;;;;4995135;28;20041;-67
2021/10/31 01:41:43;;;;;;;13.15;10.13;;;10.90;86.90;;;;;;4995615;28;20494;-66
2021/10/31 01:44:22;;;;;;;12.02;9.32;;;10.90;86.10;;;;;;4995539;28;20037;-67
2021/10/31 01:46:55;;;;;;;12.02;8.88;;;10.80;86.20;;;;;;4994346;28;20035;-66
2021/10/31 01:49:46;;;;;;;10.98;9.00;;;10.80;86.10;;;;;;4996330;28;20111;-66
2021/10/31 01:52:17;;;;;;;11.23;9.13;;;10.80;86.20;;;;;;4994969;28;20038;-67
2021/10/31 01:55:02;;;;;;;11.55;9.65;;;10.80;85.90;;;;;;4993851;28;20046;-67
2021/10/31 01:57:30;;;;;;;11.65;8.65;;;10.80;86.00;;;;;;4997621;28;20133;-66
2021/10/31 02:00:01;;;;;;;11.80;9.05;;;10.80;86.00;;;;;;4995461;28;20460;-66
2021/10/31 02:02:30;;;;;;;10.77;8.88;;;10.80;86.00;;;;;;4998497;28;20124;-66
2021/10/31 02:04:57;;;;;;;10.73;8.43;;;10.80;86.00;;;;;;4995425;28;20077;-66
2021/10/31 02:07:25;;;;;;;9.80;8.75;;;10.70;86.00;;;;;;4992772;28;20134;-66
2021/10/31 02:09:51;;;;;;;10.45;8.95;;;10.70;86.10;;;;;;4994783;28;20061;-67
2021/10/31 02:12:21;;;;;;;12.40;9.15;;;10.70;86.20;;;;;;4991564;28;20514;-66
2021/10/31 02:14:47;;;;;;;10.45;8.93;;;10.70;86.40;;;;;;4993940;28;20093;-66
2021/10/31 02:17:15;;;;;;;11.25;8.68;;;10.70;86.40;;;;;;4995431;28;20035;-66
2021/10/31 02:19:44;;;;;;;12.75;10.45;;;10.70;86.40;;;;;;4995456;28;20112;-67
2021/10/31 02:22:23;;;;;;;13.52;11.52;;;10.70;86.20;;;;;;4994907;28;20085;-66
2021/10/31 02:24:49;;;;;;;14.07;11.18;;;10.70;86.40;;;;;;4994225;28;20555;-66
2021/10/31 02:27:22;;;;;;;13.98;11.30;;;10.70;86.30;;;;;;4991200;28;20045;-67
2021/10/31 02:29:53;;;;;;;12.52;10.13;;;10.70;86.50;;;;;;4990340;28;20039;-66
2021/10/31 02:32:22;;;;;;;14.48;10.52;;;10.70;87.30;;;;;;4988709;28;20069;-66
2021/10/31 02:34:48;;;;;;;10.90;9.68;;;10.70;86.50;;;;;;4987068;28;20045;-66
2021/10/31 02:37:14;;;;;;;10.27;9.05;;;10.70;86.50;;;;;;4991061;28;20532;-66
2021/10/31 02:39:40;;;;;;;11.70;9.88;;;10.70;86.50;;;;;;4987991;28;20042;-66
2021/10/31 02:42:05;;;;;;;10.65;9.45;;;10.70;86.50;;;;;;4993005;28;20382;-66
2021/10/31 02:44:31;;;;;;;10.60;9.15;;;10.70;86.30;;;;;;4988230;28;20041;-66
2021/10/31 02:46:58;;;;;;;10.57;8.85;;;10.70;86.20;;;;;;4989439;28;20034;-66
2021/10/31 02:49:24;;;;;;;11.25;9.18;;;10.70;86.10;;;;;;4988344;28;20029;-66
2021/10/31 02:52:17;;;;;;;11.45;9.32;;;10.70;86.00;;;;;;4990521;28;20030;-66
2021/10/31 02:55:01;;;;;;;9.68;7.78;;;10.70;85.80;;;;;;4992999;28;20034;-66
2021/10/31 02:57:48;;;;;;;8.27;7.47;;;10.70;85.60;;;;;;5006138;28;21023;-66
2021/10/31 03:00:17;;;;;;;11.13;8.10;;;10.70;85.40;;;;;;4994711;28;20038;-66
2021/10/31 03:02:43;;;;;;;11.65;8.38;;;10.70;85.20;;;;;;4991525;28;20517;-66
2021/10/31 03:05:09;;;;;;;11.05;8.25;;;10.60;85.00;;;;;;4987648;28;20519;-66
2021/10/31 03:07:36;;;;;;;8.48;7.57;;;10.60;84.80;;;;;;4994303;28;20030;-66
2021/10/31 03:10:02;;;;;;;9.30;8.20;;;10.50;84.80;;;;;;4995644;28;20044;-66
2021/10/31 03:12:28;;;;;;;9.20;8.23;;;10.50;84.80;;;;;;4988901;28;20124;-67
2021/10/31 03:14:53;;;;;;;8.52;7.18;;;10.50;85.00;;;;;;4990621;28;20487;-66
2021/10/31 03:17:19;;;;;;;8.15;7.25;;;10.40;85.20;;;;;;4993102;28;20041;-67
2021/10/31 03:19:45;;;;;;;9.77;7.97;;;10.40;85.20;;;;;;4991051;28;20043;-66
2021/10/31 03:22:10;;;;;;;9.13;7.38;;;10.40;85.20;;;;;;4990403;28;20049;-67
2021/10/31 03:24:36;;;;;;;9.48;7.88;;;10.30;85.10;;;;;;4988791;28;20049;-67
2021/10/31 03:27:03;;;;;;;8.82;7.65;;;10.30;84.90;;;;;;4992465;28;20041;-68
2021/10/31 03:29:28;;;;;;;9.35;7.75;;;10.30;84.80;;;;;;4990448;28;20062;-66
2021/10/31 03:31:55;;;;;;;8.90;7.55;;;10.30;84.60;;;;;;4996088;28;20495;-66
2021/10/31 03:34:20;;;;;;;8.43;7.25;;;10.20;84.50;;;;;;4990958;28;20033;-66
2021/10/31 03:36:47;;;;;;;9.65;7.75;;;10.20;84.70;;;;;;4989188;28;20041;-66
2021/10/31 03:39:14;;;;;;;8.27;7.40;;;10.20;84.80;;;;;;4978403;28;20083;-66
2021/10/31 03:41:40;;;;;;;10.60;8.10;;;10.10;84.80;;;;;;4989465;28;20030;-66
2021/10/31 03:44:05;;;;;;;10.10;8.05;;;10.10;85.90;;;;;;4993560;28;20045;-67
2021/10/31 03:46:32;;;;;;;11.13;7.63;;;10.10;85.20;;;;;;4993724;28;20141;-67
2021/10/31 03:48:58;;;;;;;9.57;8.02;;;10.10;85.20;;;;;;4990860;28;20113;-66
2021/10/31 03:51:23;;;;;;;9.23;8.02;;;10.10;85.20;;;;;;4989670;28;20041;-67
2021/10/31 03:53:49;;;;;;;10.10;8.27;;;10.10;85.20;;;;;;4986766;28;21770;-65
2021/10/31 03:56:15;;;;;;;9.57;7.93;;;10.10;85.30;;;;;;4987363;28;20586;-65
2021/10/31 03:58:41;;;;;;;8.77;7.63;;;10.10;85.50;;;;;;4992722;28;20042;-66
2021/10/31 04:01:06;;;;;;;11.02;8.10;;;10.00;85.40;;;;;;4993273;28;20409;-66
2021/10/31 04:03:32;;;;;;;11.98;9.95;;;10.10;85.60;;;;;;4985271;28;20124;-66
2021/10/31 04:05:57;;;;;;;12.38;8.90;;;10.00;85.50;;;;;;4988609;28;20033;-67
2021/10/31 04:08:23;;;;;;;9.75;8.70;;;10.00;85.70;;;;;;4991908;28;20035;-66
2021/10/31 04:10:49;;;;;;;8.82;7.93;;;10.00;85.80;;;;;;4986830;28;20026;-66
2021/10/31 04:13:14;;;;;;;9.70;8.35;;;10.00;86.00;;;;;;4987600;28;20454;-66
2021/10/31 04:15:42;;;;;;;9.63;8.63;;;10.10;86.20;;;;;;4990579;28;20069;-66
2021/10/31 04:18:07;;;;;;;10.25;8.68;;;10.10;86.40;;;;;;4987553;28;20057;-65
2021/10/31 04:20:33;;;;;;;9.20;8.10;;;10.10;86.50;;;;;;4990504;28;20463;-66
2021/10/31 04:22:59;;;;;;;10.73;8.68;;;10.10;86.60;;;;;;4989310;28;20120;-66
2021/10/31 04:25:25;;;;;;;11.18;8.35;;;10.10;86.60;;;;;;4989403;28;20957;-66
2021/10/31 04:27:51;;;;;;;11.02;7.93;;;10.20;86.60;;;;;;4989941;28;20042;-66
2021/10/31 04:30:16;;;;;;;10.43;8.38;;;10.20;86.50;;;;;;4988323;28;20037;-66
2021/10/31 04:32:42;;;;;;;9.75;8.30;;;10.20;86.60;;;;;;4987707;28;20050;-66
2021/10/31 04:35:08;;;;;;;9.70;8.35;;;10.20;86.60;;;;;;4988434;28;20034;-66
2021/10/31 04:37:37;;;;;;;9.93;8.23;;;10.20;86.40;;;;;;4991639;28;20037;-66
2021/10/31 04:40:06;;;;;;;10.57;8.13;;;10.20;86.20;;;;;;4989180;28;20106;-66
2021/10/31 04:42:32;;;;;;;9.15;7.80;;;10.30;86.20;;;;;;4986151;28;20672;-66
2021/10/31 04:44:58;;;;;;;9.82;7.72;;;10.30;86.30;;;;;;4986953;28;20034;-66
2021/10/31 04:47:25;;;;;;;8.93;7.45;;;10.30;86.00;;;;;;4987935;28;20520;-66
2021/10/31 04:49:50;;;;;;;9.93;8.10;;;10.30;86.00;;;;;;4992854;28;20516;-66
2021/10/31 04:52:16;;;;;;;9.52;7.70;;;10.30;85.70;;;;;;4990400;28;20041;-66
2021/10/31 04:54:42;;;;;;;10.48;8.82;;;10.20;85.80;;;;;;4989608;28;20038;-65
2021/10/31 04:57:08;;;;;;;11.65;9.38;;;10.20;85.70;;;;;;4989552;28;20034;-66
2021/10/31 04:59:34;;;;;;;10.82;8.07;;;10.20;85.80;;;;;;4989107;28;20114;-66
2021/10/31 05:02:00;;;;;;;10.32;8.38;;;10.20;85.90;;;;;;4993292;28;20520;-66
2021/10/31 05:04:25;;;;;;;9.32;8.27;;;10.20;85.90;;;;;;4987457;28;20034;-66
2021/10/31 05:06:51;;;;;;;9.65;7.78;;;10.10;85.80;;;;;;4989376;28;20033;-66
2021/10/31 05:09:17;;;;;;;11.55;9.82;;;10.10;85.90;;;;;;4988857;28;20038;-66
2021/10/31 05:11:43;;;;;;;13.30;10.57;;;10.10;85.90;;;;;;4985851;28;20030;-66
2021/10/31 05:14:09;;;;;;;15.75;12.05;;;10.10;85.70;;;;;;4987487;28;20045;-66
2021/10/31 05:16:36;;;;;;;12.80;10.20;;;10.10;85.70;;;;;;4991149;28;20031;-66
2021/10/31 05:19:04;;;;;;;12.38;10.40;;;10.10;85.70;;;;;;4990002;28;20037;-67
2021/10/31 05:21:29;;;;;;;13.05;9.80;;;10.10;85.50;;;;;;4992683;28;20037;-66
2021/10/31 05:23:55;;;;;;;13.25;9.60;;;10.00;85.30;;;;;;4984424;28;20042;-66
2021/10/31 05:26:21;;;;;;;12.35;8.88;;;10.10;85.30;;;;;;4991394;28;20030;-67
2021/10/31 05:28:46;;;;;;;11.15;8.40;;;10.00;85.20;;;;;;4987746;28;20426;-66
2021/10/31 05:31:12;;;;;;;11.80;9.20;;;9.90;85.20;;;;;;4988979;28;20134;-66
2021/10/31 05:33:38;;;;;;;11.02;9.48;;;10.00;85.10;;;;;;4991325;28;20535;-66
2021/10/31 05:36:04;;;;;;;9.65;8.30;;;10.00;84.90;;;;;;4992041;28;20041;-66
2021/10/31 05:38:30;;;;;;;11.13;8.65;;;9.90;84.90;;;;;;4991620;28;20042;-67
2021/10/31 05:40:55;;;;;;;10.88;8.52;;;9.90;84.80;;;;;;4985369;28;20527;-66
2021/10/31 05:43:21;;;;;;;9.05;8.00;;;9.80;84.60;;;;;;4985605;28;20039;-65
2021/10/31 05:45:47;;;;;;;9.15;8.07;;;9.80;84.80;;;;;;4990304;28;20126;-66
2021/10/31 05:48:13;;;;;;;10.73;8.20;;;9.70;84.90;;;;;;4989397;28;20038;-65
2021/10/31 05:50:40;;;;;;;9.13;7.45;;;9.60;85.20;;;;;;4990413;28;20038;-67
2021/10/31 05:53:07;;;;;;;8.48;7.30;;;9.60;85.20;;;;;;4993344;28;20108;-66
2021/10/31 05:55:33;;;;;;;8.32;7.45;;;9.60;85.20;;;;;;4985966;28;20038;-67
2021/10/31 05:57:59;;;;;;;9.57;7.60;;;9.60;85.40;;;;;;4991331;28;20803;-66
2021/10/31 06:00:24;;;;;;;10.13;6.97;;;9.60;85.40;;;;;;5002451;28;20054;-66
2021/10/31 06:02:50;;;;;;;9.77;7.35;;;9.50;85.30;;;;;;4983039;28;20605;-66
2021/10/31 06:05:17;;;;;;;9.50;7.57;;;9.50;85.20;;;;;;4990144;28;20739;-66
2021/10/31 06:07:43;;;;;;;10.32;7.82;;;9.50;85.00;;;;;;4990395;28;20049;-66
2021/10/31 06:10:10;;;;;;;9.45;7.60;;;9.50;84.80;;;;;;4988825;28;20030;-65
2021/10/31 06:12:40;;;;;;;8.38;7.50;;;9.50;84.80;;;;;;4991882;28;20041;-66
2021/10/31 06:15:07;;;;;;;9.25;8.07;;;9.40;84.70;;;;;;4993401;28;20030;-67
2021/10/31 06:17:33;;;;;;;8.60;7.68;;;9.40;84.70;;;;;;4990565;28;20097;-66
2021/10/31 06:20:00;;;;;;;8.68;7.75;;;9.40;84.60;;;;;;5007988;28;20041;-66
2021/10/31 06:22:26;;;;;;;9.45;8.30;;;9.40;84.70;;;;;;4988470;28;20038;-67
2021/10/31 06:24:52;;;;;;;9.48;7.95;;;9.40;84.80;;;;;;5001610;28;20526;-65
2021/10/31 06:27:17;;;;;;;8.95;7.88;;;9.40;84.80;;;;;;4992499;28;20061;-66
2021/10/31 06:29:43;;;;;;;9.18;7.65;;;9.40;84.80;;;;;;4988670;28;20095;-66
2021/10/31 06:32:08;;;;;;;10.98;8.45;;;9.40;84.70;;;;;;4991328;28;20045;-66
2021/10/31 06:34:34;;;;;;;9.43;8.07;;;9.40;84.80;;;;;;4992054;28;20025;-66
2021/10/31 06:37:00;;;;;;;7.60;6.75;;;9.40;84.80;;;;;;4996260;28;20117;-64
2021/10/31 06:39:25;;;;;;;9.35;7.90;;;9.40;84.80;;;;;;4992403;28;20089;-66
2021/10/31 06:41:51;;;;;;;8.43;7.15;;;9.40;85.00;;;;;;4992858;28;20089;-66
2021/10/31 06:44:16;;;;;;;11.35;9.63;;;9.30;85.30;;;;;;4992908;28;20048;-66
2021/10/31 06:46:42;;;;;;;11.50;8.45;;;9.30;85.50;;;;;;5006330;28;20040;-66
2021/10/31 06:49:10;;;;;;;10.00;8.77;;;9.40;85.50;;;;;;4996563;28;20105;-65
2021/10/31 06:51:35;;;;;;;10.20;8.93;;;9.40;85.60;;;;;;4998407;28;20088;-66
2021/10/31 06:54:01;;;;;;;10.02;8.77;;;9.40;85.80;;;;;;4990051;28;20034;-66
2021/10/31 06:56:27;;;;;;;10.75;8.20;;;9.40;85.90;;;;;;4989352;28;20124;-67
2021/10/31 06:58:53;;;;;;;11.23;8.65;;;9.30;85.80;;;;;;4989151;28;20068;-66
2021/10/31 07:01:20;;;;;;;10.05;8.93;;;9.40;85.90;;;;;;4991118;28;20067;-65
2021/10/31 07:03:48;;;;;;;14.02;10.73;;;9.40;85.90;;;;;;4988747;28;20038;-66
2021/10/31 07:06:15;;;;;;;14.55;11.25;;;9.40;85.90;;;;;;4991962;28;20452;-65
2021/10/31 07:08:42;;;;;;;11.85;10.60;;;9.50;86.20;;;;;;4987954;28;20481;-66
2021/10/31 07:11:08;;;;;;;18.88;15.23;;;9.50;86.30;;;;;;4987436;28;20049;-66
2021/10/31 07:13:33;;;;;;;20.23;16.08;;;9.50;86.40;;;;;;4986731;28;20042;-65
2021/10/31 07:15:59;;;;;;;24.20;18.95;;;9.60;86.50;;;;;;4973332;28;20053;-65
2021/10/31 07:18:25;;;;;;;15.88;10.82;;;9.50;86.60;;;;;;4977725;28;20080;-66
2021/10/31 07:20:51;;;;;;;21.13;17.48;;;9.60;86.90;;;;;;4981788;28;20038;-66
2021/10/31 07:23:17;;;;;;;17.45;13.05;;;9.60;87.40;;;;;;4987407;28;20047;-65
2021/10/31 07:25:43;;;;;;;15.73;12.50;;;9.70;87.80;;;;;;4985690;28;20045;-64
2021/10/31 07:28:09;;;;;;;13.27;11.02;;;9.80;89.20;;;;;;4984123;28;20180;-65
2021/10/31 07:30:34;;;;;;;11.32;9.57;;;9.80;88.50;;;;;;4984713;28;20564;-66
2021/10/31 07:33:01;;;;;;;11.35;9.48;;;9.80;88.50;;;;;;4988801;28;20066;-66
2021/10/31 07:35:28;;;;;;;12.88;10.27;;;9.80;88.50;;;;;;4994591;28;20034;-66
2021/10/31 07:37:54;;;;;;;10.80;8.43;;;9.90;88.30;;;;;;4991127;28;20038;-66
2021/10/31 07:40:22;;;;;;;12.40;9.02;;;10.00;88.20;;;;;;4981116;28;20035;-65
2021/10/31 07:42:47;;;;;;;11.95;8.32;;;10.00;88.10;;;;;;4986912;28;20038;-65
2021/10/31 07:45:13;;;;;;;9.90;7.30;;;10.10;88.30;;;;;;4989340;28;20634;-66
2021/10/31 07:47:39;;;;;;;11.90;7.85;;;10.20;88.30;;;;;;4981516;28;20045;-66
2021/10/31 07:50:06;;;;;;;9.73;7.80;;;10.20;88.10;;;;;;4988040;28;20050;-64
2021/10/31 07:52:32;;;;;;;9.85;8.13;;;10.20;88.00;;;;;;4992666;28;20038;-66
2021/10/31 07:55:00;;;;;;;8.50;7.50;;;10.30;88.80;;;;;;4983090;28;20037;-66
2021/10/31 07:57:28;;;;;;;10.63;7.80;;;10.30;87.80;;;;;;4984786;28;20105;-66
2021/10/31 07:59:54;;;;;;;10.35;8.55;;;10.40;87.70;;;;;;4984572;28;20073;-67
2021/10/31 08:02:20;;;;;;;9.45;7.25;;;10.40;87.80;;;;;;4985711;28;20137;-66
2021/10/31 08:04:45;;;;;;;8.95;7.60;;;10.50;87.90;;;;;;4982371;28;20383;-65
2021/10/31 08:07:12;;;;;;;8.88;7.35;;;10.50;88.00;;;;;;4988310;28;20038;-67
2021/10/31 08:09:37;;;;;;;8.68;7.28;;;10.50;87.90;;;;;;4990632;28;20121;-67
2021/10/31 08:12:04;;;;;;;9.55;7.32;;;10.60;87.90;;;;;;4992332;28;20116;-67
2021/10/31 08:14:29;;;;;;;8.32;7.43;;;10.60;87.80;;;;;;4994485;28;20034;-67
2021/10/31 08:16:55;;;;;;;8.90;7.82;;;10.70;87.90;;;;;;4998645;28;20033;-67
2021/10/31 08:19:24;;;;;;;9.65;8.38;;;10.70;88.00;;;;;;4995228;28;20057;-67
2021/10/31 08:21:52;;;;;;;9.48;8.50;;;10.80;88.20;;;;;;4994062;28;20405;-68
2021/10/31 08:24:18;;;;;;;10.05;8.40;;;10.80;88.50;;;;;;4993955;28;20039;-67
2021/10/31 08:26:44;;;;;;;11.23;8.43;;;10.90;88.60;;;;;;4992147;28;20042;-67
2021/10/31 08:29:11;;;;;;;9.30;7.88;;;10.90;88.50;;;;;;4994310;28;20042;-67
2021/10/31 08:31:41;;;;;;;9.70;7.90;;;11.00;88.60;;;;;;4995283;28;20646;-67
2021/10/31 08:34:07;;;;;;;10.50;7.75;;;11.10;88.50;;;;;;4987481;28;20037;-66
2021/10/31 08:36:33;;;;;;;11.30;8.15;;;11.10;88.30;;;;;;4993659;28;20041;-67
2021/10/31 08:39:00;;;;;;;9.38;8.15;;;11.20;88.20;;;;;;4994587;28;20142;-67
2021/10/31 08:41:28;;;;;;;9.00;7.80;;;11.20;88.00;;;;;;4992972;28;20037;-67
2021/10/31 08:43:55;;;;;;;10.43;7.60;;;11.20;87.80;;;;;;4996599;28;20065;-67
2021/10/31 08:46:22;;;;;;;8.90;7.70;;;11.30;87.80;;;;;;4995153;28;20030;-66
2021/10/31 08:48:48;;;;;;;9.57;7.65;;;11.40;88.00;;;;;;4992162;28;20038;-67
2021/10/31 08:51:15;;;;;;;8.65;7.75;;;11.40;87.80;;;;;;4994865;28;20461;-66
2021/10/31 08:53:40;;;;;;;8.25;7.40;;;11.40;87.80;;;;;;4995838;28;20046;-68
2021/10/31 08:56:11;;;;;;;11.07;8.98;;;11.50;87.70;;;;;;4986902;28;20418;-66
2021/10/31 08:58:37;;;;;;;9.27;8.27;;;11.60;87.60;;;;;;4991226;28;20168;-67
2021/10/31 09:01:03;;;;;;;9.00;8.10;;;11.60;87.60;;;;;;4994815;28;20038;-67
2021/10/31 09:03:28;;;;;;;9.13;7.75;;;11.60;87.50;;;;;;4991490;28;20039;-65
2021/10/31 09:05:54;;;;;;;8.25;7.45;;;11.70;87.60;;;;;;4993293;28;20077;-67
2021/10/31 09:08:20;;;;;;;8.10;7.20;;;11.80;87.60;;;;;;4997683;28;20100;-66
2021/10/31 09:10:46;;;;;;;10.50;7.70;;;11.80;87.50;;;;;;4983537;28;20069;-67
2021/10/31 09:13:12;;;;;;;8.23;7.20;;;11.90;87.30;;;;;;4993579;28;20049;-67
2021/10/31 09:15:38;;;;;;;8.73;7.35;;;11.90;87.10;;;;;;4990776;28;20547;-67
2021/10/31 09:18:06;;;;;;;9.73;7.07;;;12.00;87.00;;;;;;4992649;28;20045;-67
2021/10/31 09:20:33;;;;;;;8.38;7.55;;;12.10;87.10;;;;;;4990403;28;20037;-67
2021/10/31 09:23:00;;;;;;;10.10;7.68;;;12.10;87.00;;;;;;4994512;28;20493;-67
2021/10/31 09:25:27;;;;;;;8.70;7.50;;;12.10;86.90;;;;;;4991541;28;20479;-67
2021/10/31 09:27:54;;;;;;;8.00;7.15;;;12.20;87.10;;;;;;4993528;28;20117;-67
2021/10/31 09:30:20;;;;;;;8.73;7.57;;;12.30;87.20;;;;;;4990610;28;20069;-67
2021/10/31 09:32:47;;;;;;;7.82;7.03;;;12.40;86.90;;;;;;4995743;28;20069;-67
2021/10/31 09:35:17;;;;;;;8.98;7.20;;;12.40;86.70;;;;;;4992969;28;20517;-67
2021/10/31 09:37:43;;;;;;;9.43;7.22;;;12.50;86.70;;;;;;4994322;28;20046;-68
2021/10/31 09:40:10;;;;;;;7.15;6.45;;;12.60;86.60;;;;;;4990236;28;20034;-67
2021/10/31 09:42:36;;;;;;;8.65;6.65;;;12.70;86.50;;;;;;4994235;28;20069;-67
2021/10/31 09:45:04;;;;;;;7.93;6.88;;;12.80;86.20;;;;;;4991693;28;20060;-67
2021/10/31 09:47:30;;;;;;;7.75;6.57;;;12.80;86.00;;;;;;4991727;28;20066;-67
2021/10/31 09:49:55;;;;;;;7.15;6.50;;;12.90;85.90;;;;;;4992657;28;21606;-67
2021/10/31 09:52:25;;;;;;;7.65;6.55;;;13.00;85.70;;;;;;4991816;28;20053;-68
2021/10/31 09:54:50;;;;;;;7.03;6.32;;;13.10;85.30;;;;;;4987740;28;20593;-67
2021/10/31 09:57:16;;;;;;;7.82;6.63;;;13.10;85.70;;;;;;4991930;28;20034;-67
2021/10/31 09:59:49;;;;;;;6.97;6.28;;;13.20;85.10;;;;;;4991714;28;20066;-66
2021/10/31 10:05:32;;;;;;;6.80;6.10;;;13.30;85.00;;;;;;4987784;28;20037;-68
2021/10/31 10:08:12;;;;;;;6.88;6.18;;;13.40;84.90;;;;;;5015708;28;20030;-68
2021/10/31 10:10:53;;;;;;;6.70;5.90;;;13.50;84.30;;;;;;5012319;28;20030;-67
2021/10/31 10:13:21;;;;;;;6.90;6.20;;;13.60;84.30;;;;;;5018652;28;20052;-67
2021/10/31 10:15:52;;;;;;;8.18;6.43;;;13.60;84.50;;;;;;5019273;28;20041;-67
2021/10/31 10:18:32;;;;;;;7.00;6.32;;;13.70;84.50;;;;;;5018849;28;20041;-67
2021/10/31 10:21:23;;;;;;;6.78;6.07;;;13.80;84.50;;;;;;5020066;28;20030;-67
2021/10/31 10:23:55;;;;;;;7.72;6.93;;;13.90;84.40;;;;;;5019411;28;20038;-67
2021/10/31 10:26:43;;;;;;;7.32;6.53;;;14.00;84.50;;;;;;5019910;28;20403;-68
2021/10/31 10:29:09;;;;;;;7.40;6.60;;;14.00;84.10;;;;;;5018653;28;20037;-68
2021/10/31 10:31:34;;;;;;;7.93;6.47;;;14.10;84.00;;;;;;5019085;28;20049;-67
2021/10/31 10:34:00;;;;;;;6.50;5.68;;;14.20;83.90;;;;;;5017482;28;20128;-68
2021/10/31 10:36:27;;;;;;;6.45;5.85;;;14.30;83.80;;;;;;5017041;28;20586;-68
2021/10/31 10:39:10;;;;;;;6.50;5.80;;;14.30;83.60;;;;;;5019809;28;20516;-68
2021/10/31 10:41:52;;;;;;;6.13;5.53;;;14.40;82.60;;;;;;5017810;28;20403;-67
2021/10/31 10:44:25;;;;;;;7.82;5.78;;;14.50;83.00;;;;;;5019163;28;20034;-68
2021/10/31 10:46:56;;;;;;;5.93;5.32;;;14.60;82.40;;;;;;5017611;28;20109;-68
2021/10/31 10:49:23;;;;;;;6.60;5.50;;;14.60;82.60;;;;;;5019982;28;20147;-68
2021/10/31 10:52:04;;;;;;;7.97;5.85;;;14.80;82.70;;;;;;5019564;28;20026;-67
2021/10/31 10:54:30;;;;;;;6.45;5.70;;;14.80;81.60;;;;;;5031293;28;20033;-68
2021/10/31 10:57:08;;;;;;;7.60;6.00;;;15.00;82.10;;;;;;5017833;28;20037;-68
2021/10/31 10:59:38;;;;;;;6.20;5.60;;;15.00;81.10;;;;;;5018150;28;20029;-68
2021/10/31 11:02:15;;;;;;;5.78;5.20;;;15.20;81.30;;;;;;5018335;28;20564;-67
2021/10/31 11:04:44;;;;;;;6.10;5.50;;;15.20;80.90;;;;;;5017619;28;20414;-67
2021/10/31 11:07:10;;;;;;;5.28;4.65;;;15.30;81.20;;;;;;5017998;28;20579;-68
2021/10/31 11:09:43;;;;;;;5.28;4.78;;;15.50;81.00;;;;;;5018091;28;20401;-68
2021/10/31 11:12:49;;;;;;;5.65;4.53;;;15.60;80.40;;;;;;5029761;28;20164;-68
2021/10/31 11:15:18;;;;;;;4.00;3.70;;;15.70;79.90;;;;;;4956063;28;20031;-68
2021/10/31 11:17:46;;;;;;;3.92;3.63;;;15.80;81.00;;;;;;4952474;28;20034;-68
2021/10/31 11:20:15;;;;;;;4.13;3.80;;;15.90;79.40;;;;;;4991731;28;20026;-68
2021/10/31 11:22:47;;;;;;;3.70;3.40;;;16.00;79.00;;;;;;5012917;28;20025;-68
2021/10/31 11:25:15;;;;;;;3.90;3.25;;;16.10;78.70;;;;;;5001675;28;20427;-67
2021/10/31 11:27:41;;;;;;;3.67;2.97;;;16.20;78.60;;;;;;5007340;28;20034;-68
2021/10/31 11:30:08;;;;;;;3.35;2.63;;;16.30;78.00;;;;;;4998629;28;20106;-68
2021/10/31 11:32:35;;;;;;;2.65;2.45;;;16.40;77.50;;;;;;4997650;28;20529;-68
2021/10/31 11:35:02;;;;;;;2.00;1.80;;;16.50;76.50;;;;;;4997779;28;20414;-68
2021/10/31 11:37:32;;;;;;;1.27;1.17;;;16.60;75.60;;;;;;4997732;28;20667;-66
2021/10/31 11:40:01;;;;;;;1.20;1.10;;;16.70;73.90;;;;;;4999195;28;20125;-68
2021/10/31 11:42:35;;;;;;;1.25;1.10;;;16.90;72.80;;;;;;4997826;28;20045;-67
2021/10/31 11:45:13;;;;;;;1.60;1.05;;;17.00;70.50;;;;;;4996543;28;20085;-68
2021/10/31 11:47:41;;;;;;;1.05;0.90;;;17.20;69.50;;;;;;4995899;28;20037;-67
2021/10/31 11:50:13;;;;;;;1.30;1.20;;;17.30;70.20;;;;;;4998923;28;20094;-68
2021/10/31 11:52:43;;;;;;;2.20;1.20;;;17.50;69.10;;;;;;4997130;28;20038;-68
2021/10/31 11:55:28;;;;;;;1.88;1.13;;;17.60;68.30;;;;;;4997279;28;20035;-68
2021/10/31 11:57:59;;;;;;;1.00;1.00;;;17.70;67.10;;;;;;4998247;28;20112;-68
2021/10/31 12:00:26;;;;;;;1.23;1.10;;;17.80;68.40;;;;;;4998520;28;20081;-69
2021/10/31 12:02:58;;;;;;;1.65;1.17;;;17.90;68.00;;;;;;4996415;28;20041;-68
2021/10/31 12:05:37;;;;;;;1.42;1.05;;;18.00;66.20;;;;;;4996308;28;20037;-68
2021/10/31 12:08:04;;;;;;;1.52;1.10;;;18.10;65.10;;;;;;4997203;28;20391;-68
2021/10/31 12:10:47;;;;;;;1.45;1.00;;;18.20;66.10;;;;;;4994886;28;20035;-67
2021/10/31 12:13:17;;;;;;;1.10;1.00;;;18.20;64.00;;;;;;4997525;28;20042;-67
2021/10/31 12:16:08;;;;;;;2.10;1.20;;;18.30;65.20;;;;;;4998778;28;20026;-67
2021/10/31 12:18:50;;;;;;;1.35;1.20;;;18.40;63.00;;;;;;4997871;28;20046;-68
2021/10/31 12:21:30;;;;;;;1.25;1.00;;;18.40;63.60;;;;;;4999074;28;20116;-67
2021/10/31 12:24:04;;;;;;;0.90;0.90;;;18.50;63.20;;;;;;4995845;28;20062;-67
2021/10/31 12:26:38;;;;;;;0.88;0.88;;;18.60;63.40;;;;;;5013378;28;20076;-67
2021/10/31 12:29:19;;;;;;;1.10;1.00;;;18.60;62.40;;;;;;4996380;28;20073;-68
2021/10/31 12:31:51;;;;;;;0.90;0.75;;;18.60;62.40;;;;;;4996807;28;20042;-67
2021/10/31 12:34:19;;;;;;;1.75;1.40;;;18.70;62.40;;;;;;5003174;28;20037;-68
2021/10/31 12:36:48;;;;;;;1.00;1.00;;;18.70;63.30;;;;;;4995765;28;20121;-68
2021/10/31 12:39:30;;;;;;;1.35;1.17;;;18.80;63.20;;;;;;4996123;28;20034;-68
2021/10/31 12:42:14;;;;;;;1.20;1.10;;;18.80;61.80;;;;;;4997484;28;20034;-68
2021/10/31 12:44:47;;;;;;;1.55;1.20;;;18.80;60.80;;;;;;4998503;28;20045;-67
2021/10/31 12:47:18;;;;;;;1.17;0.93;;;18.90;62.40;;;;;;4998414;28;20057;-67
2021/10/31 12:49:46;;;;;;;3.85;1.10;;;18.80;62.60;;;;;;4997004;28;20037;-68
2021/10/31 12:52:25;;;;;;;1.35;1.15;;;18.80;62.40;;;;;;5012328;28;20101;-68
2021/10/31 12:54:59;;;;;;;1.65;1.23;;;18.80;61.00;;;;;;4996157;28;20112;-68